sensor_id;sensor_type;location;lat;lon;timestamp;pressure;altitude;pressure_sealevel;temperature;humidity
25722;BME280;13578;53.450;15.496;2022-12-18T00:02:17;101297.19;;;-8.12;100.00
25722;BME280;13578;53.450;15.496;2022-12-18T00:05:18;101292.78;;;-8.08;100.00
25722;BME280;13578;53.450;15.496;2022-12-18T00:08:19;101283.06;;;-8.02;100.00
25722;BME280;13578;53.450;15.496;2022-12-18T00:11:22;101281.47;;;-7.83;100.00
25722;BME280;13578;53.450;15.496;2022-12-18T00:14:23;101284.16;;;-7.79;100.00
25722;BME280;13578;53.450;15.496;2022-12-18T00:17:24;101277.00;;;-7.87;100.00
25722;BME280;13578;53.450;15.496;2022-12-18T00:20:24;101284.22;;;-7.73;100.00
25722;BME280;13578;53.450;15.496;2022-12-18T00:23:26;101288.47;;;-7.92;100.00
25722;BME280;13578;53.450;15.496;2022-12-18T00:26:29;101281.56;;;-7.72;100.00
25722;BME280;13578;53.450;15.496;2022-12-18T00:29:30;101293.19;;;-7.65;100.00
25722;BME280;13578;53.450;15.496;2022-12-18T00:32:32;101288.63;;;-7.75;100.00
25722;BME280;13578;53.450;15.496;2022-12-18T00:35:33;101288.63;;;-7.74;100.00
25722;BME280;13578;53.450;15.496;2022-12-18T00:38:35;101287.75;;;-7.74;100.00
25722;BME280;13578;53.450;15.496;2022-12-18T00:41:36;101288.69;;;-7.69;100.00
25722;BME280;13578;53.450;15.496;2022-12-18T00:44:55;101305.50;;;-7.78;100.00
25722;BME280;13578;53.450;15.496;2022-12-18T00:47:56;101311.56;;;-7.96;100.00
25722;BME280;13578;53.450;15.496;2022-12-18T00:50:57;101311.56;;;-7.94;100.00
25722;BME280;13578;53.450;15.496;2022-12-18T00:53:57;101306.13;;;-8.04;100.00
25722;BME280;13578;53.450;15.496;2022-12-18T00:56:58;101306.13;;;-8.04;100.00
25722;BME280;13578;53.450;15.496;2022-12-18T00:59:58;101295.47;;;-8.05;100.00
25722;BME280;13578;53.450;15.496;2022-12-18T01:02:59;101300.72;;;-8.10;100.00
25722;BME280;13578;53.450;15.496;2022-12-18T01:06:05;101304.53;;;-7.88;100.00
25722;BME280;13578;53.450;15.496;2022-12-18T01:09:06;101314.38;;;-7.82;100.00
25722;BME280;13578;53.450;15.496;2022-12-18T01:12:07;101309.91;;;-7.83;100.00
25722;BME280;13578;53.450;15.496;2022-12-18T01:15:09;101314.28;;;-7.90;100.00
25722;BME280;13578;53.450;15.496;2022-12-18T01:18:10;101318.78;;;-7.84;100.00
25722;BME280;13578;53.450;15.496;2022-12-18T01:21:13;101317.91;;;-7.82;100.00
25722;BME280;13578;53.450;15.496;2022-12-18T01:24:14;101318.88;;;-7.75;100.00
25722;BME280;13578;53.450;15.496;2022-12-18T01:27:15;101317.97;;;-7.75;100.00
25722;BME280;13578;53.450;15.496;2022-12-18T01:30:16;101309.91;;;-7.80;100.00
25722;BME280;13578;53.450;15.496;2022-12-18T01:33:16;101321.56;;;-7.72;100.00
25722;BME280;13578;53.450;15.496;2022-12-18T01:36:25;101330.28;;;-7.88;100.00
25722;BME280;13578;53.450;15.496;2022-12-18T01:39:26;101328.28;;;-8.09;100.00
25722;BME280;13578;53.450;15.496;2022-12-18T01:42:27;101322.16;;;-7.99;100.00
25722;BME280;13578;53.450;15.496;2022-12-18T01:45:30;101330.28;;;-7.88;100.00
25722;BME280;13578;53.450;15.496;2022-12-18T01:48:31;101331.25;;;-7.80;100.00
25722;BME280;13578;53.450;15.496;2022-12-18T01:51:32;101346.38;;;-7.80;100.00
25722;BME280;13578;53.450;15.496;2022-12-18T01:54:33;101352.56;;;-7.80;100.00
25722;BME280;13578;53.450;15.496;2022-12-18T01:57:34;101352.63;;;-7.78;100.00
25722;BME280;13578;53.450;15.496;2022-12-18T02:00:35;101336.50;;;-7.89;100.00
25722;BME280;13578;53.450;15.496;2022-12-18T02:03:36;101348.88;;;-7.94;100.00
25722;BME280;13578;53.450;15.496;2022-12-18T02:06:40;101346.16;;;-7.99;100.00
25722;BME280;13578;53.450;15.496;2022-12-18T02:10:02;101341.81;;;-7.91;100.00
25722;BME280;13578;53.450;15.496;2022-12-18T02:13:12;101344.50;;;-7.88;100.00
25722;BME280;13578;53.450;15.496;2022-12-18T02:19:43;101350.78;;;-7.84;100.00
25722;BME280;13578;53.450;15.496;2022-12-18T02:26:41;101370.31;;;-7.87;100.00
25722;BME280;13578;53.450;15.496;2022-12-18T02:29:48;101363.91;;;-8.01;100.00
25722;BME280;13578;53.450;15.496;2022-12-18T02:32:52;101363.75;;;-8.17;100.00
25722;BME280;13578;53.450;15.496;2022-12-18T02:35:54;101374.47;;;-8.12;100.00
25722;BME280;13578;53.450;15.496;2022-12-18T02:38:58;101370.06;;;-8.07;100.00
25722;BME280;13578;53.450;15.496;2022-12-18T02:42:00;101371.06;;;-7.97;100.00
25722;BME280;13578;53.450;15.496;2022-12-18T02:45:08;101379.88;;;-8.03;100.00
25722;BME280;13578;53.450;15.496;2022-12-18T02:48:09;101371.94;;;-7.97;100.00
25722;BME280;13578;53.450;15.496;2022-12-18T02:51:31;101369.28;;;-7.97;100.00
25722;BME280;13578;53.450;15.496;2022-12-18T03:01:24;101362.09;;;-8.04;100.00
25722;BME280;13578;53.450;15.496;2022-12-18T03:07:42;101364.75;;;-8.04;100.00
25722;BME280;13578;53.450;15.496;2022-12-18T03:10:51;101375.47;;;-7.99;100.00
25722;BME280;13578;53.450;15.496;2022-12-18T03:13:57;101371.97;;;-7.95;100.00
25722;BME280;13578;53.450;15.496;2022-12-18T03:17:01;101372.97;;;-7.87;100.00
25722;BME280;13578;53.450;15.496;2022-12-18T03:20:07;101381.03;;;-7.80;100.00
25722;BME280;13578;53.450;15.496;2022-12-18T03:23:14;101387.06;;;-7.97;100.00
25722;BME280;13578;53.450;15.496;2022-12-18T03:26:19;101394.13;;;-8.02;100.00
25722;BME280;13578;53.450;15.496;2022-12-18T03:29:31;101390.56;;;-8.01;100.00
25722;BME280;13578;53.450;15.496;2022-12-18T03:32:56;101382.66;;;-7.95;100.00
25722;BME280;13578;53.450;15.496;2022-12-18T03:36:00;101392.44;;;-7.91;100.00
25722;BME280;13578;53.450;15.496;2022-12-18T03:39:01;101397.91;;;-7.80;100.00
25722;BME280;13578;53.450;15.496;2022-12-18T03:42:07;101395.28;;;-7.77;100.00
25722;BME280;13578;53.450;15.496;2022-12-18T03:48:42;101403.19;;;-7.85;100.00
25722;BME280;13578;53.450;15.496;2022-12-18T03:51:51;101401.31;;;-7.95;100.00
25722;BME280;13578;53.450;15.496;2022-12-18T03:54:54;101401.31;;;-7.93;100.00
25722;BME280;13578;53.450;15.496;2022-12-18T03:57:56;101402.38;;;-7.79;100.00
25722;BME280;13578;53.450;15.496;2022-12-18T04:01:01;101412.97;;;-7.85;100.00
25722;BME280;13578;53.450;15.496;2022-12-18T04:04:04;101407.50;;;-7.96;100.00
25722;BME280;13578;53.450;15.496;2022-12-18T04:07:06;101415.38;;;-8.05;100.00
25722;BME280;13578;53.450;15.496;2022-12-18T04:10:11;101416.91;;;-8.26;100.00
25722;BME280;13578;53.450;15.496;2022-12-18T04:13:13;101426.91;;;-8.09;100.00
25722;BME280;13578;53.450;15.496;2022-12-18T04:16:21;101424.31;;;-8.03;100.00
25722;BME280;13578;53.450;15.496;2022-12-18T04:19:22;101426.97;;;-8.02;100.00
25722;BME280;13578;53.450;15.496;2022-12-18T04:22:23;101425.91;;;-8.15;100.00
25722;BME280;13578;53.450;15.496;2022-12-18T04:25:23;101420.72;;;-8.05;100.00
25722;BME280;13578;53.450;15.496;2022-12-18T04:28:24;101424.28;;;-8.05;100.00
25722;BME280;13578;53.450;15.496;2022-12-18T04:31:25;101428.81;;;-7.98;100.00
25722;BME280;13578;53.450;15.496;2022-12-18T04:34:25;101422.38;;;-8.14;100.00
25722;BME280;13578;53.450;15.496;2022-12-18T04:37:26;101429.59;;;-8.06;100.00
25722;BME280;13578;53.450;15.496;2022-12-18T04:40:27;101427.88;;;-8.01;100.00
25722;BME280;13578;53.450;15.496;2022-12-18T04:43:27;101417.22;;;-8.01;100.00
25722;BME280;13578;53.450;15.496;2022-12-18T04:46:28;101420.88;;;-7.93;100.00
25722;BME280;13578;53.450;15.496;2022-12-18T04:49:29;101422.69;;;-7.90;100.00
25722;BME280;13578;53.450;15.496;2022-12-18T04:52:29;101432.50;;;-7.85;100.00
25722;BME280;13578;53.450;15.496;2022-12-18T04:55:30;101443.09;;;-7.91;100.00
25722;BME280;13578;53.450;15.496;2022-12-18T04:58:30;101446.53;;;-8.01;100.00
25722;BME280;13578;53.450;15.496;2022-12-18T05:01:31;101452.88;;;-7.93;100.00
25722;BME280;13578;53.450;15.496;2022-12-18T05:04:33;101446.69;;;-7.87;100.00
25722;BME280;13578;53.450;15.496;2022-12-18T05:07:34;101441.47;;;-7.79;100.00
25722;BME280;13578;53.450;15.496;2022-12-18T05:10:35;101448.47;;;-7.88;100.00
25722;BME280;13578;53.450;15.496;2022-12-18T05:13:36;101451.94;;;-7.95;100.00
25722;BME280;13578;53.450;15.496;2022-12-18T05:16:38;101443.81;;;-8.04;100.00
25722;BME280;13578;53.450;15.496;2022-12-18T05:19:39;101441.88;;;-8.18;100.00
25722;BME280;13578;53.450;15.496;2022-12-18T05:22:39;101449.75;;;-8.27;100.00
25722;BME280;13578;53.450;15.496;2022-12-18T05:25:40;101451.50;;;-8.29;100.00
25722;BME280;13578;53.450;15.496;2022-12-18T05:28:40;101439.97;;;-8.28;100.00
25722;BME280;13578;53.450;15.496;2022-12-18T05:31:41;101446.41;;;-8.12;100.00
25722;BME280;13578;53.450;15.496;2022-12-18T05:34:42;101442.03;;;-8.05;100.00
25722;BME280;13578;53.450;15.496;2022-12-18T05:37:42;101451.88;;;-8.01;100.00
25722;BME280;13578;53.450;15.496;2022-12-18T05:40:43;101451.97;;;-7.92;100.00
25722;BME280;13578;53.450;15.496;2022-12-18T05:43:44;101459.13;;;-7.89;100.00
25722;BME280;13578;53.450;15.496;2022-12-18T05:46:44;101467.13;;;-7.88;100.00
25722;BME280;13578;53.450;15.496;2022-12-18T05:49:45;101481.34;;;-7.90;100.00
25722;BME280;13578;53.450;15.496;2022-12-18T05:52:46;101476.88;;;-7.93;100.00
25722;BME280;13578;53.450;15.496;2022-12-18T05:55:47;101482.28;;;-7.85;100.00
25722;BME280;13578;53.450;15.496;2022-12-18T05:58:52;101475.28;;;-7.77;100.00
25722;BME280;13578;53.450;15.496;2022-12-18T06:01:53;101479.81;;;-7.70;100.00
25722;BME280;13578;53.450;15.496;2022-12-18T06:04:53;101489.41;;;-7.83;100.00
25722;BME280;13578;53.450;15.496;2022-12-18T06:07:54;101495.53;;;-7.90;100.00
25722;BME280;13578;53.450;15.496;2022-12-18T06:10:55;101494.75;;;-7.81;100.00
25722;BME280;13578;53.450;15.496;2022-12-18T06:13:56;101503.69;;;-7.79;100.00
25722;BME280;13578;53.450;15.496;2022-12-18T06:16:57;101517.13;;;-7.70;100.00
25722;BME280;13578;53.450;15.496;2022-12-18T06:19:58;101527.88;;;-7.65;100.00
25722;BME280;13578;53.450;15.496;2022-12-18T06:22:58;101520.59;;;-7.78;100.00
25722;BME280;13578;53.450;15.496;2022-12-18T06:26:04;101517.03;;;-7.77;100.00
25722;BME280;13578;53.450;15.496;2022-12-18T06:29:05;101521.41;;;-7.83;100.00
25722;BME280;13578;53.450;15.496;2022-12-18T06:32:06;101530.50;;;-7.67;100.00
25722;BME280;13578;53.450;15.496;2022-12-18T06:35:07;101521.59;;;-7.67;100.00
25722;BME280;13578;53.450;15.496;2022-12-18T06:38:08;101537.69;;;-7.59;100.00
25722;BME280;13578;53.450;15.496;2022-12-18T06:41:11;101551.09;;;-7.55;100.00
25722;BME280;13578;53.450;15.496;2022-12-18T06:44:12;101551.06;;;-7.58;100.00
25722;BME280;13578;53.450;15.496;2022-12-18T06:47:12;101547.41;;;-7.66;100.00
25722;BME280;13578;53.450;15.496;2022-12-18T06:50:13;101561.72;;;-7.58;100.00
25722;BME280;13578;53.450;15.496;2022-12-18T06:53:14;101564.41;;;-7.56;100.00
25722;BME280;13578;53.450;15.496;2022-12-18T06:56:15;101564.47;;;-7.52;100.00
25722;BME280;13578;53.450;15.496;2022-12-18T06:59:16;101567.25;;;-7.42;100.00
25722;BME280;13578;53.450;15.496;2022-12-18T07:02:17;101562.00;;;-7.35;100.00
25722;BME280;13578;53.450;15.496;2022-12-18T07:05:17;101575.28;;;-7.42;100.00
25722;BME280;13578;53.450;15.496;2022-12-18T07:08:18;101585.09;;;-7.38;100.00
25722;BME280;13578;53.450;15.496;2022-12-18T07:11:19;101586.97;;;-7.29;100.00
25722;BME280;13578;53.450;15.496;2022-12-18T07:14:20;101587.84;;;-7.30;100.00
25722;BME280;13578;53.450;15.496;2022-12-18T07:17:20;101588.88;;;-7.18;100.00
25722;BME280;13578;53.450;15.496;2022-12-18T07:20:21;101592.28;;;-7.32;100.00
25722;BME280;13578;53.450;15.496;2022-12-18T07:23:22;101598.59;;;-7.24;100.00
25722;BME280;13578;53.450;15.496;2022-12-18T07:26:22;101601.28;;;-7.23;100.00
25722;BME280;13578;53.450;15.496;2022-12-18T07:29:23;101598.69;;;-7.15;100.00
25722;BME280;13578;53.450;15.496;2022-12-18T07:32:24;101598.50;;;-7.32;100.00
25722;BME280;13578;53.450;15.496;2022-12-18T07:35:24;101588.75;;;-7.31;100.00
25722;BME280;13578;53.450;15.496;2022-12-18T07:38:25;101590.75;;;-7.12;100.00
25722;BME280;13578;53.450;15.496;2022-12-18T07:41:26;101590.69;;;-7.15;100.00
25722;BME280;13578;53.450;15.496;2022-12-18T07:44:26;101583.66;;;-7.07;100.00
25722;BME280;13578;53.450;15.496;2022-12-18T07:47:28;101572.16;;;-7.03;100.00
25722;BME280;13578;53.450;15.496;2022-12-18T07:50:33;101568.69;;;-6.92;100.00
25722;BME280;13578;53.450;15.496;2022-12-18T07:53:35;101564.25;;;-6.92;100.00
25722;BME280;13578;53.450;15.496;2022-12-18T07:56:35;101567.91;;;-6.80;100.00
25722;BME280;13578;53.450;15.496;2022-12-18T07:59:36;101570.63;;;-6.76;100.00
25722;BME280;13578;53.450;15.496;2022-12-18T08:02:37;101579.56;;;-6.72;100.00
25722;BME280;13578;53.450;15.496;2022-12-18T08:05:37;101582.25;;;-6.72;100.00
25722;BME280;13578;53.450;15.496;2022-12-18T08:08:38;101586.72;;;-6.73;100.00
25722;BME280;13578;53.450;15.496;2022-12-18T08:11:40;101585.78;;;-6.73;100.00
25722;BME280;13578;53.450;15.496;2022-12-18T08:14:41;101598.31;;;-6.64;100.00
25722;BME280;13578;53.450;15.496;2022-12-18T08:17:41;101596.63;;;-6.61;100.00
25722;BME280;13578;53.450;15.496;2022-12-18T08:20:42;101585.94;;;-6.58;100.00
25722;BME280;13578;53.450;15.496;2022-12-18T08:23:42;101595.75;;;-6.58;100.00
25722;BME280;13578;53.450;15.496;2022-12-18T08:26:43;101584.19;;;-6.52;100.00
25722;BME280;13578;53.450;15.496;2022-12-18T08:29:44;101587.81;;;-6.47;100.00
25722;BME280;13578;53.450;15.496;2022-12-18T08:32:51;101584.28;;;-6.43;100.00
25722;BME280;13578;53.450;15.496;2022-12-18T08:35:53;101586.06;;;-6.42;100.00
25722;BME280;13578;53.450;15.496;2022-12-18T08:38:53;101589.56;;;-6.48;100.00
25722;BME280;13578;53.450;15.496;2022-12-18T08:41:54;101585.19;;;-6.40;100.00
25722;BME280;13578;53.450;15.496;2022-12-18T08:45:13;101594.09;;;-6.44;100.00
25722;BME280;13578;53.450;15.496;2022-12-18T08:48:14;101588.75;;;-6.44;100.00
25722;BME280;13578;53.450;15.496;2022-12-18T08:51:16;101590.59;;;-6.35;100.00
25722;BME280;13578;53.450;15.496;2022-12-18T08:54:17;101596.78;;;-6.41;100.00
25722;BME280;13578;53.450;15.496;2022-12-18T08:57:18;101594.19;;;-6.33;100.00
25722;BME280;13578;53.450;15.496;2022-12-18T09:00:18;101607.59;;;-6.27;100.00
25722;BME280;13578;53.450;15.496;2022-12-18T09:03:19;101608.56;;;-6.17;100.00
25722;BME280;13578;53.450;15.496;2022-12-18T09:06:23;101614.78;;;-6.19;100.00
25722;BME280;13578;53.450;15.496;2022-12-18T09:09:24;101613.81;;;-6.26;100.00
25722;BME280;13578;53.450;15.496;2022-12-18T09:12:25;101625.38;;;-6.32;100.00
25722;BME280;13578;53.450;15.496;2022-12-18T09:15:25;101612.84;;;-6.39;100.00
25722;BME280;13578;53.450;15.496;2022-12-18T09:18:26;101629.72;;;-6.43;100.00
25722;BME280;13578;53.450;15.496;2022-12-18T09:21:30;101624.38;;;-6.43;100.00
25722;BME280;13578;53.450;15.496;2022-12-18T09:24:31;101607.53;;;-6.33;100.00
25722;BME280;13578;53.450;15.496;2022-12-18T09:27:31;101612.84;;;-6.39;100.00
25722;BME280;13578;53.450;15.496;2022-12-18T09:30:32;101611.09;;;-6.34;100.00
25722;BME280;13578;53.450;15.496;2022-12-18T09:33:37;101613.81;;;-6.29;100.00
25722;BME280;13578;53.450;15.496;2022-12-18T09:36:38;101606.66;;;-6.27;100.00
25722;BME280;13578;53.450;15.496;2022-12-18T09:39:39;101604.78;;;-6.42;100.00
25722;BME280;13578;53.450;15.496;2022-12-18T09:42:39;101606.34;;;-6.66;100.00
25722;BME280;13578;53.450;15.496;2022-12-18T09:45:44;101616.31;;;-6.48;100.00
25722;BME280;13578;53.450;15.496;2022-12-18T09:48:49;101604.75;;;-6.47;100.00
25722;BME280;13578;53.450;15.496;2022-12-18T09:55:05;101612.56;;;-6.67;100.00
25722;BME280;13578;53.450;15.496;2022-12-18T09:58:35;101615.31;;;-6.58;100.00
25722;BME280;13578;53.450;15.496;2022-12-18T10:01:40;101615.44;;;-6.47;100.00
25722;BME280;13578;53.450;15.496;2022-12-18T10:04:41;101631.44;;;-6.50;100.00
25722;BME280;13578;53.450;15.496;2022-12-18T10:18:22;101659.91;;;-6.53;100.00
25722;BME280;13578;53.450;15.496;2022-12-18T10:22:05;101665.97;;;-6.67;100.00
25722;BME280;13578;53.450;15.496;2022-12-18T10:28:18;101665.09;;;-6.69;100.00
25722;BME280;13578;53.450;15.496;2022-12-18T10:31:22;101671.00;;;-6.95;100.00
25722;BME280;13578;53.450;15.496;2022-12-18T10:34:23;101666.66;;;-6.85;100.00
25722;BME280;13578;53.450;15.496;2022-12-18T10:37:26;101658.78;;;-6.74;100.00
25722;BME280;13578;53.450;15.496;2022-12-18T10:40:27;101651.78;;;-6.63;100.00
25722;BME280;13578;53.450;15.496;2022-12-18T10:43:32;101658.94;;;-6.59;100.00
25722;BME280;13578;53.450;15.496;2022-12-18T10:46:33;101647.38;;;-6.58;100.00
25722;BME280;13578;53.450;15.496;2022-12-18T10:49:35;101640.28;;;-6.52;100.00
25722;BME280;13578;53.450;15.496;2022-12-18T10:52:36;101644.81;;;-6.45;100.00
25722;BME280;13578;53.450;15.496;2022-12-18T10:55:44;101653.81;;;-6.40;100.00
25722;BME280;13578;53.450;15.496;2022-12-18T10:58:59;101656.56;;;-6.29;100.00
25722;BME280;13578;53.450;15.496;2022-12-18T11:02:00;101647.63;;;-6.31;100.00
25722;BME280;13578;53.450;15.496;2022-12-18T11:05:01;101640.50;;;-6.34;100.00
25722;BME280;13578;53.450;15.496;2022-12-18T11:08:03;101636.03;;;-6.35;100.00
25722;BME280;13578;53.450;15.496;2022-12-18T11:11:07;101642.28;;;-6.31;100.00
25722;BME280;13578;53.450;15.496;2022-12-18T11:14:46;101638.75;;;-6.30;100.00
25722;BME280;13578;53.450;15.496;2022-12-18T11:17:53;101635.19;;;-6.26;100.00
25722;BME280;13578;53.450;15.496;2022-12-18T11:20:57;101636.91;;;-6.34;100.00
25722;BME280;13578;53.450;15.496;2022-12-18T11:23:59;101645.09;;;-6.13;100.00
25722;BME280;13578;53.450;15.496;2022-12-18T11:27:16;101640.72;;;-6.04;100.00
25722;BME280;13578;53.450;15.496;2022-12-18T11:30:29;101629.16;;;-6.05;100.00
25722;BME280;13578;53.450;15.496;2022-12-18T11:33:30;101622.84;;;-6.12;100.00
25722;BME280;13578;53.450;15.496;2022-12-18T11:36:36;101623.72;;;-6.13;100.00
25722;BME280;13578;53.450;15.496;2022-12-18T11:39:46;101623.75;;;-6.10;100.00
25722;BME280;13578;53.450;15.496;2022-12-18T11:46:36;101614.09;;;-5.87;100.00
25722;BME280;13578;53.450;15.496;2022-12-18T11:49:39;101601.63;;;-5.79;100.00
25722;BME280;13578;53.450;15.496;2022-12-18T11:52:41;101601.63;;;-5.81;100.00
25722;BME280;13578;53.450;15.496;2022-12-18T11:56:00;101607.94;;;-5.74;100.00
25722;BME280;13578;53.450;15.496;2022-12-18T11:59:28;101613.31;;;-5.68;100.00
25722;BME280;13578;53.450;15.496;2022-12-18T12:09:34;101589.25;;;-5.60;100.00
25722;BME280;13578;53.450;15.496;2022-12-18T12:16:43;101579.47;;;-5.56;100.00
25722;BME280;13578;53.450;15.496;2022-12-18T12:23:14;101567.84;;;-5.63;100.00
25722;BME280;13578;53.450;15.496;2022-12-18T12:38:53;101558.91;;;-5.65;100.00
25722;BME280;13578;53.450;15.496;2022-12-18T12:41:55;101541.06;;;-5.69;100.00
25722;BME280;13578;53.450;15.496;2022-12-18T12:45:20;101557.97;;;-5.75;100.00
25722;BME280;13578;53.450;15.496;2022-12-18T12:48:45;101571.38;;;-5.70;100.00
25722;BME280;13578;53.450;15.496;2022-12-18T12:51:58;101558.03;;;-5.63;100.00
25722;BME280;13578;53.450;15.496;2022-12-18T12:55:04;101569.66;;;-5.54;100.00
25722;BME280;13578;53.450;15.496;2022-12-18T12:58:13;101568.81;;;-5.49;100.00
25722;BME280;13578;53.450;15.496;2022-12-18T13:01:36;101572.38;;;-5.51;100.00
25722;BME280;13578;53.450;15.496;2022-12-18T13:05:31;101573.31;;;-5.35;100.00
25722;BME280;13578;53.450;15.496;2022-12-18T13:09:04;101569.75;;;-5.39;100.00
25722;BME280;13578;53.450;15.496;2022-12-18T13:11:46;101566.16;;;-5.43;100.00
25722;BME280;13578;53.450;15.496;2022-12-18T13:15:20;101563.53;;;-5.26;100.00
25722;BME280;13578;53.450;15.496;2022-12-18T13:18:23;101565.25;;;-5.43;100.00
25722;BME280;13578;53.450;15.496;2022-12-18T13:21:28;101571.44;;;-5.56;100.00
25722;BME280;13578;53.450;15.496;2022-12-18T13:24:30;101585.69;;;-5.59;100.00
25722;BME280;13578;53.450;15.496;2022-12-18T13:30:48;101575.94;;;-5.52;100.00
25722;BME280;13578;53.450;15.496;2022-12-18T13:33:49;101583.03;;;-5.58;100.00
25722;BME280;13578;53.450;15.496;2022-12-18T13:36:51;101582.13;;;-5.61;100.00
25722;BME280;13578;53.450;15.496;2022-12-18T13:39:51;101603.53;;;-5.58;100.00
25722;BME280;13578;53.450;15.496;2022-12-18T13:42:52;101611.59;;;-5.53;100.00
25722;BME280;13578;53.450;15.496;2022-12-18T13:52:39;101641.88;;;-5.58;100.00
25722;BME280;13578;53.450;15.496;2022-12-18T13:55:44;101641.88;;;-5.58;100.00
25722;BME280;13578;53.450;15.496;2022-12-18T13:58:45;101656.19;;;-5.55;100.00
25722;BME280;13578;53.450;15.496;2022-12-18T14:04:51;101670.41;;;-5.61;100.00
25722;BME280;13578;53.450;15.496;2022-12-18T14:07:53;101665.06;;;-5.61;100.00
25722;BME280;13578;53.450;15.496;2022-12-18T14:10:55;101649.00;;;-5.63;100.00
25722;BME280;13578;53.450;15.496;2022-12-18T14:13:56;101644.56;;;-5.62;100.00
25722;BME280;13578;53.450;15.496;2022-12-18T14:16:57;101650.84;;;-5.54;100.00
25722;BME280;13578;53.450;15.496;2022-12-18T14:19:57;101641.06;;;-5.49;100.00
25722;BME280;13578;53.450;15.496;2022-12-18T14:22:59;101641.91;;;-5.61;100.00
25722;BME280;13578;53.450;15.496;2022-12-18T14:26:22;101633.00;;;-5.53;100.00
25722;BME280;13578;53.450;15.496;2022-12-18T14:29:29;101627.69;;;-5.47;100.00
25722;BME280;13578;53.450;15.496;2022-12-18T14:32:30;101618.78;;;-5.46;100.00
25722;BME280;13578;53.450;15.496;2022-12-18T14:35:32;101600.97;;;-5.44;100.00
25722;BME280;13578;53.450;15.496;2022-12-18T14:38:39;101608.97;;;-5.43;100.00
25722;BME280;13578;53.450;15.496;2022-12-18T14:41:40;101595.59;;;-5.44;100.00
25722;BME280;13578;53.450;15.496;2022-12-18T14:44:40;101597.34;;;-5.49;100.00
25722;BME280;13578;53.450;15.496;2022-12-18T14:47:43;101591.97;;;-5.55;100.00
25722;BME280;13578;53.450;15.496;2022-12-18T14:50:44;101590.16;;;-5.58;100.00
25722;BME280;13578;53.450;15.496;2022-12-18T14:53:47;101591.97;;;-5.55;100.00
25722;BME280;13578;53.450;15.496;2022-12-18T14:56:51;101595.56;;;-5.47;100.00
25722;BME280;13578;53.450;15.496;2022-12-18T15:00:07;101590.19;;;-5.52;100.00
25722;BME280;13578;53.450;15.496;2022-12-18T15:03:18;101583.09;;;-5.42;100.00
25722;BME280;13578;53.450;15.496;2022-12-18T15:06:33;101575.09;;;-5.37;100.00
25722;BME280;13578;53.450;15.496;2022-12-18T15:09:34;101578.63;;;-5.45;100.00
25722;BME280;13578;53.450;15.496;2022-12-18T15:12:35;101577.72;;;-5.48;100.00
25722;BME280;13578;53.450;15.496;2022-12-18T15:18:41;101555.44;;;-5.39;100.00
25722;BME280;13578;53.450;15.496;2022-12-18T15:21:43;101551.88;;;-5.46;100.00
25722;BME280;13578;53.450;15.496;2022-12-18T15:24:43;101538.47;;;-5.52;100.00
25722;BME280;13578;53.450;15.496;2022-12-18T15:27:46;101542.94;;;-5.50;100.00
25722;BME280;13578;53.450;15.496;2022-12-18T15:34:19;101553.69;;;-5.36;100.00
25722;BME280;13578;53.450;15.496;2022-12-18T15:37:21;101557.25;;;-5.42;100.00
25722;BME280;13578;53.450;15.496;2022-12-18T15:40:23;101551.88;;;-5.43;100.00
25722;BME280;13578;53.450;15.496;2022-12-18T15:43:25;101545.66;;;-5.39;100.00
25722;BME280;13578;53.450;15.496;2022-12-18T15:46:35;101546.56;;;-5.35;100.00
25722;BME280;13578;53.450;15.496;2022-12-18T15:49:36;101536.75;;;-5.38;100.00
25722;BME280;13578;53.450;15.496;2022-12-18T15:52:43;101534.03;;;-5.43;100.00
25722;BME280;13578;53.450;15.496;2022-12-18T15:55:44;101536.72;;;-5.41;100.00
25722;BME280;13578;53.450;15.496;2022-12-18T15:59:14;101537.63;;;-5.31;100.00
25722;BME280;13578;53.450;15.496;2022-12-18T16:02:17;101544.78;;;-5.38;100.00
25722;BME280;13578;53.450;15.496;2022-12-18T16:05:19;101534.94;;;-5.37;100.00
25722;BME280;13578;53.450;15.496;2022-12-18T16:08:20;101540.31;;;-5.39;100.00
25722;BME280;13578;53.450;15.496;2022-12-18T16:11:26;101551.03;;;-5.33;100.00
25722;BME280;13578;53.450;15.496;2022-12-18T16:14:40;101548.34;;;-5.33;100.00
25722;BME280;13578;53.450;15.496;2022-12-18T16:17:42;101534.94;;;-5.37;100.00
25722;BME280;13578;53.450;15.496;2022-12-18T16:20:43;101533.16;;;-5.40;100.00
25722;BME280;13578;53.450;15.496;2022-12-18T16:23:47;101537.63;;;-5.39;100.00
25722;BME280;13578;53.450;15.496;2022-12-18T16:26:48;101540.31;;;-5.33;100.00
25722;BME280;13578;53.450;15.496;2022-12-18T16:29:50;101555.50;;;-5.33;100.00
25722;BME280;13578;53.450;15.496;2022-12-18T16:32:51;101562.59;;;-5.32;100.00
25722;BME280;13578;53.450;15.496;2022-12-18T16:35:52;101563.59;;;-5.18;100.00
25722;BME280;13578;53.450;15.496;2022-12-18T16:38:53;101563.56;;;-5.21;100.00
25722;BME280;13578;53.450;15.496;2022-12-18T16:41:54;101574.25;;;-5.26;100.00
25722;BME280;13578;53.450;15.496;2022-12-18T16:44:54;101567.09;;;-5.30;100.00
25722;BME280;13578;53.450;15.496;2022-12-18T16:47:55;101557.28;;;-5.37;100.00
25722;BME280;13578;53.450;15.496;2022-12-18T16:51:03;101550.13;;;-5.38;100.00
25722;BME280;13578;53.450;15.496;2022-12-18T16:54:04;101547.47;;;-5.32;100.00
25722;BME280;13578;53.450;15.496;2022-12-18T16:57:05;101558.19;;;-5.33;100.00
25722;BME280;13578;53.450;15.496;2022-12-18T17:00:06;101549.25;;;-5.29;100.00
25722;BME280;13578;53.450;15.496;2022-12-18T17:03:07;101557.25;;;-5.35;100.00
25722;BME280;13578;53.450;15.496;2022-12-18T17:06:07;101557.31;;;-5.26;100.00